createdAt,value
2023-05-15T00:00:12.161Z,11.40
2023-05-15T00:02:47.468Z,11.25
2023-05-15T00:05:16.565Z,11.27
2023-05-15T00:07:45.574Z,12.40
2023-05-15T00:10:14.637Z,11.18
2023-05-15T00:12:45.081Z,12.57
2023-05-15T00:15:15.444Z,12.02
2023-05-15T00:17:44.441Z,12.70
2023-05-15T00:20:13.918Z,12.75
2023-05-15T00:22:42.867Z,11.73
2023-05-15T00:25:11.874Z,11.88
2023-05-15T00:27:40.842Z,10.35
2023-05-15T00:30:12.608Z,11.38
2023-05-15T00:32:41.923Z,12.02
2023-05-15T00:35:11.034Z,10.23
2023-05-15T00:37:40.013Z,10.88
2023-05-15T00:40:11.911Z,11.23
2023-05-15T00:42:42.188Z,11.32
2023-05-15T00:45:14.211Z,11.48
2023-05-15T00:47:44.536Z,11.93
2023-05-15T00:50:13.866Z,12.20
2023-05-15T00:52:44.124Z,10.85
2023-05-15T00:55:13.256Z,12.85
2023-05-15T00:57:44.779Z,12.77
2023-05-15T01:00:18.609Z,12.25
2023-05-15T01:02:47.883Z,11.98
2023-05-15T01:05:17.152Z,11.35
2023-05-15T01:07:58.266Z,9.82
2023-05-15T01:10:27.481Z,9.88
2023-05-15T01:12:58.549Z,8.70
2023-05-15T01:15:29.016Z,9.15
2023-05-15T01:17:58.093Z,10.02
2023-05-15T01:20:29.112Z,11.73
2023-05-15T01:23:12.231Z,10.90
2023-05-15T01:26:03.118Z,11.95
2023-05-15T01:28:38.336Z,9.52
2023-05-15T01:33:44.426Z,8.35
2023-05-15T01:36:17.946Z,8.02
2023-05-15T01:38:51.829Z,6.97
2023-05-15T01:41:26.693Z,8.50
2023-05-15T01:44:04.363Z,8.38
2023-05-15T01:46:36.290Z,7.25
2023-05-15T01:49:05.813Z,6.65
2023-05-15T01:51:35.423Z,6.10
2023-05-15T01:54:06.342Z,6.70
2023-05-15T01:56:37.403Z,5.57
2023-05-15T01:59:09.526Z,5.22
2023-05-15T02:01:39.620Z,4.85
2023-05-15T02:04:09.768Z,3.60
2023-05-15T02:06:39.761Z,5.18
2023-05-15T02:09:11.688Z,3.17
2023-05-15T02:11:43.382Z,3.85
2023-05-15T02:14:16.146Z,3.40
2023-05-15T02:16:45.394Z,3.70
2023-05-15T02:19:14.743Z,3.38
2023-05-15T02:21:43.759Z,2.88
2023-05-15T02:24:12.724Z,2.95
2023-05-15T02:26:49.590Z,2.70
2023-05-15T02:29:26.884Z,2.90
2023-05-15T02:32:07.126Z,2.65
2023-05-15T02:34:43.837Z,2.70
2023-05-15T02:37:16.272Z,2.25
2023-05-15T02:39:46.975Z,2.67
2023-05-15T02:42:16.995Z,2.83
2023-05-15T02:44:50.124Z,2.22
2023-05-15T02:47:20.051Z,2.60
2023-05-15T02:49:49.580Z,2.20
2023-05-15T02:52:19.338Z,2.30
2023-05-15T02:54:48.582Z,2.50
2023-05-15T02:57:17.636Z,2.03
2023-05-15T02:59:48.040Z,2.72
2023-05-15T03:02:17.280Z,2.53
2023-05-15T03:04:47.097Z,2.20
2023-05-15T03:07:17.053Z,2.10
2023-05-15T03:09:46.302Z,2.35
2023-05-15T03:12:15.409Z,2.10
2023-05-15T03:14:44.634Z,2.47
2023-05-15T03:17:15.044Z,2.25
2023-05-15T03:19:44.165Z,2.28
2023-05-15T03:22:13.297Z,2.20
2023-05-15T03:24:42.362Z,2.17
2023-05-15T03:27:11.299Z,2.40
2023-05-15T03:29:40.237Z,2.20
2023-05-15T03:32:14.653Z,2.13
2023-05-15T03:34:43.674Z,2.43
2023-05-15T03:37:12.734Z,2.17
2023-05-15T03:39:41.718Z,1.80
2023-05-15T03:42:10.932Z,2.13
2023-05-15T03:44:39.880Z,2.45
2023-05-15T03:47:09.183Z,2.25
2023-05-15T03:49:39.525Z,2.00
2023-05-15T03:52:09.332Z,1.80
2023-05-15T03:54:38.760Z,1.98
2023-05-15T03:57:07.994Z,1.90
2023-05-15T03:59:37.003Z,1.90
2023-05-15T04:02:06.387Z,2.00
2023-05-15T04:04:35.772Z,1.50
2023-05-15T04:07:06.392Z,2.10
2023-05-15T04:09:35.426Z,1.60
2023-05-15T04:12:04.670Z,2.10
2023-05-15T04:14:33.734Z,1.77
2023-05-15T04:17:02.680Z,2.15
2023-05-15T04:19:31.694Z,1.90
2023-05-15T04:22:00.718Z,1.40
2023-05-15T04:24:31.056Z,1.80
2023-05-15T04:27:00.230Z,1.65
2023-05-15T04:29:29.359Z,1.25
2023-05-15T04:31:58.375Z,1.45
2023-05-15T04:34:29.537Z,2.35
2023-05-15T04:36:58.723Z,1.30
2023-05-15T04:39:27.679Z,1.65
2023-05-15T04:41:58.105Z,1.42
2023-05-15T04:44:27.109Z,1.50
2023-05-15T04:46:56.121Z,1.30
2023-05-15T04:49:25.310Z,1.35
2023-05-15T04:51:54.491Z,1.35
2023-05-15T04:54:23.582Z,1.65
2023-05-15T04:56:52.526Z,1.30
2023-05-15T04:59:23.094Z,1.27
2023-05-15T05:01:52.490Z,1.30
2023-05-15T05:04:21.608Z,1.38
2023-05-15T05:06:50.852Z,1.67
2023-05-15T05:09:38.103Z,1.45
2023-05-15T05:12:08.147Z,1.60
2023-05-15T05:14:40.611Z,1.90
2023-05-15T05:17:09.827Z,1.63
2023-05-15T05:19:38.983Z,1.88
2023-05-15T05:22:08.339Z,1.65
2023-05-15T05:24:37.715Z,1.73
2023-05-15T05:27:07.126Z,1.52
2023-05-15T05:29:36.293Z,1.75
2023-05-15T05:32:08.786Z,1.13
2023-05-15T05:34:37.854Z,1.20
2023-05-15T05:37:07.478Z,1.33
2023-05-15T05:39:36.691Z,1.20
2023-05-15T05:42:06.279Z,1.00
2023-05-15T05:44:35.492Z,1.10
2023-05-15T05:47:04.699Z,1.00
2023-05-15T05:49:35.249Z,0.70
2023-05-15T05:52:08.777Z,0.90
2023-05-15T05:54:37.996Z,0.90
2023-05-15T05:57:07.798Z,0.63
2023-05-15T05:59:37.464Z,1.20
2023-05-15T06:02:06.825Z,1.58
2023-05-15T06:04:37.395Z,0.60
2023-05-15T06:07:06.532Z,0.60
2023-05-15T06:09:36.011Z,0.65
2023-05-15T06:12:05.700Z,0.80
2023-05-15T06:14:34.924Z,1.20
2023-05-15T06:17:04.209Z,0.90
2023-05-15T06:19:33.198Z,0.85
2023-05-15T06:22:04.560Z,1.10
2023-05-15T06:24:33.552Z,1.25
2023-05-15T06:27:02.807Z,0.93
2023-05-15T06:29:31.945Z,0.90
2023-05-15T06:32:01.041Z,1.10
2023-05-15T06:34:30.104Z,0.82
2023-05-15T06:36:59.119Z,0.77
2023-05-15T06:39:30.211Z,1.00
2023-05-15T06:42:01.606Z,1.05
2023-05-15T06:44:32.808Z,0.80
2023-05-15T06:47:01.983Z,0.93
2023-05-15T06:49:31.192Z,1.10
2023-05-15T06:52:00.355Z,0.90
2023-05-15T06:54:30.802Z,0.73
2023-05-15T06:57:00.900Z,0.95
2023-05-15T06:59:31.413Z,1.00
2023-05-15T07:02:00.441Z,0.90
2023-05-15T07:04:31.234Z,0.95
2023-05-15T07:07:00.424Z,1.00
2023-05-15T07:09:31.059Z,0.98
2023-05-15T07:12:00.328Z,0.82
2023-05-15T07:14:29.432Z,0.80
2023-05-15T07:16:59.220Z,1.00
2023-05-15T07:19:28.448Z,0.55
2023-05-15T07:21:57.719Z,0.80
2023-05-15T07:24:26.780Z,0.95
2023-05-15T07:26:59.279Z,0.70
2023-05-15T07:29:29.187Z,0.80
2023-05-15T07:31:58.405Z,0.70
2023-05-15T07:34:27.597Z,0.65
2023-05-15T07:36:57.182Z,0.80
2023-05-15T07:39:26.809Z,0.60
2023-05-15T07:41:57.625Z,0.60
2023-05-15T07:44:26.707Z,0.73
2023-05-15T07:46:56.578Z,0.70
2023-05-15T07:49:25.651Z,0.77
2023-05-15T07:51:55.375Z,0.68
2023-05-15T07:54:24.811Z,0.70
2023-05-15T07:56:54.688Z,0.43
2023-05-15T07:59:25.475Z,0.80
2023-05-15T08:02:01.934Z,0.70
2023-05-15T08:04:42.416Z,0.70
2023-05-15T08:07:14.412Z,0.80
2023-05-15T08:09:44.053Z,0.65
2023-05-15T08:12:21.049Z,0.60
2023-05-15T08:14:53.657Z,0.60
2023-05-15T08:17:23.533Z,0.52
2023-05-15T08:19:52.900Z,0.77
2023-05-15T08:22:22.128Z,0.77
2023-05-15T08:24:51.177Z,0.80
2023-05-15T08:27:20.672Z,0.82
2023-05-15T08:29:49.692Z,0.80
2023-05-15T08:32:20.291Z,0.80
2023-05-15T08:34:49.445Z,0.70
2023-05-15T08:37:18.477Z,0.95
2023-05-15T08:39:47.495Z,0.80
2023-05-15T08:42:21.637Z,1.10
2023-05-15T08:44:51.678Z,0.70
2023-05-15T08:47:22.650Z,0.63
2023-05-15T08:50:01.642Z,0.68
2023-05-15T08:52:34.117Z,0.63
2023-05-15T08:55:04.750Z,0.70
2023-05-15T08:57:36.393Z,0.70
2023-05-15T09:00:09.029Z,0.52
2023-05-15T09:02:43.042Z,0.65
2023-05-15T09:05:12.827Z,0.60
2023-05-15T09:07:45.171Z,0.50
2023-05-15T09:10:18.803Z,0.65
2023-05-15T09:12:53.491Z,0.60
2023-05-15T09:15:26.547Z,0.70
2023-05-15T09:17:58.025Z,0.73
2023-05-15T09:20:29.385Z,0.60
2023-05-15T09:22:59.089Z,1.00
2023-05-15T09:25:39.493Z,0.70
2023-05-15T09:28:11.354Z,0.70
2023-05-15T09:31:00.032Z,0.70
2023-05-15T09:33:32.366Z,0.70
2023-05-15T09:36:01.968Z,0.70
2023-05-15T09:38:34.389Z,0.60
2023-05-15T09:41:04.993Z,0.65
2023-05-15T09:43:36.017Z,0.70
2023-05-15T09:46:23.159Z,1.10
2023-05-15T09:49:12.582Z,0.68
2023-05-15T09:51:41.951Z,1.10
2023-05-15T09:54:17.143Z,0.52
2023-05-15T09:56:47.284Z,0.88
2023-05-15T09:59:17.823Z,0.50
2023-05-15T10:01:48.401Z,0.60
2023-05-15T10:04:19.193Z,0.70
2023-05-15T10:06:50.164Z,0.60
2023-05-15T10:09:19.173Z,1.00
2023-05-15T10:11:54.051Z,0.80
2023-05-15T10:14:24.699Z,0.98
2023-05-15T10:16:54.718Z,0.35
2023-05-15T10:19:28.958Z,0.60
2023-05-15T10:22:00.998Z,0.80
2023-05-15T10:24:32.412Z,0.70
2023-05-15T10:27:03.952Z,0.90
2023-05-15T10:29:34.158Z,0.70
2023-05-15T10:32:03.508Z,0.85
2023-05-15T10:34:34.957Z,0.90
2023-05-15T10:37:05.435Z,0.70
2023-05-15T10:39:41.240Z,0.60
2023-05-15T10:42:11.380Z,0.50
2023-05-15T10:44:40.839Z,0.60
2023-05-15T10:47:11.151Z,0.80
2023-05-15T10:49:43.869Z,1.00
2023-05-15T10:52:13.121Z,0.60
2023-05-15T10:55:00.753Z,0.60
2023-05-15T10:57:33.290Z,0.70
2023-05-15T11:00:02.623Z,0.60
2023-05-15T11:02:41.154Z,0.70
2023-05-15T11:05:13.005Z,0.55
2023-05-15T11:07:42.433Z,0.73
2023-05-15T11:10:39.207Z,0.45
2023-05-15T11:13:08.477Z,0.80
2023-05-15T11:15:44.525Z,0.80
2023-05-15T11:18:14.245Z,0.60
2023-05-15T11:21:08.915Z,0.57
2023-05-15T11:23:42.207Z,0.55
2023-05-15T11:26:11.229Z,0.60
2023-05-15T11:28:47.562Z,0.60
2023-05-15T11:31:16.871Z,0.50
2023-05-15T11:33:52.526Z,0.80
2023-05-15T11:36:26.068Z,0.70
2023-05-15T11:38:55.689Z,0.80
2023-05-15T11:41:32.389Z,0.70
2023-05-15T11:44:01.450Z,0.60
2023-05-15T11:46:31.971Z,0.70
2023-05-15T11:49:01.679Z,0.60
2023-05-15T11:51:33.169Z,0.60
2023-05-15T11:54:03.476Z,0.75
2023-05-15T11:56:32.655Z,0.80
2023-05-15T11:59:02.583Z,0.60
2023-05-15T12:01:42.011Z,0.50
2023-05-15T12:04:15.272Z,0.35
2023-05-15T12:06:47.661Z,0.50
2023-05-15T12:09:19.334Z,0.47
2023-05-15T12:11:52.833Z,0.55
2023-05-15T12:14:28.481Z,0.43
2023-05-15T12:17:02.876Z,0.70
2023-05-15T12:19:33.610Z,0.57
2023-05-15T12:22:06.538Z,0.55
2023-05-15T12:24:39.884Z,0.60
2023-05-15T12:27:10.089Z,0.60
2023-05-15T12:29:40.406Z,0.55
2023-05-15T12:32:11.139Z,1.88
2023-05-15T12:34:41.172Z,0.70
2023-05-15T12:37:15.069Z,0.40
2023-05-15T12:40:03.215Z,0.50
2023-05-15T12:42:40.109Z,0.70
2023-05-15T12:45:15.089Z,0.50
2023-05-15T12:47:45.405Z,0.70
2023-05-15T12:50:16.490Z,0.70
2023-05-15T12:52:53.094Z,0.47
2023-05-15T12:55:25.609Z,0.50
2023-05-15T12:57:56.008Z,0.65
2023-05-15T13:00:26.032Z,0.85
2023-05-15T13:02:57.077Z,0.52
2023-05-15T13:05:26.708Z,0.60
2023-05-15T13:08:00.513Z,0.80
2023-05-15T13:10:33.346Z,0.68
2023-05-15T13:13:02.647Z,0.52
2023-05-15T13:15:33.274Z,0.60
2023-05-15T13:18:03.531Z,0.50
2023-05-15T13:20:35.176Z,0.45
2023-05-15T13:23:06.148Z,0.60
2023-05-15T13:25:36.094Z,0.70
2023-05-15T13:28:08.035Z,0.52
2023-05-15T13:30:39.284Z,0.57
2023-05-15T13:33:08.821Z,0.70
2023-05-15T13:35:38.416Z,0.52
2023-05-15T13:38:11.352Z,0.60
2023-05-15T13:40:41.348Z,0.60
2023-05-15T13:43:10.471Z,0.60
2023-05-15T13:45:39.543Z,0.55
2023-05-15T13:48:08.603Z,0.50
2023-05-15T13:50:38.000Z,0.60
2023-05-15T13:53:08.879Z,0.60
2023-05-15T13:55:38.028Z,0.90
2023-05-15T13:58:07.167Z,2.38
2023-05-15T14:00:36.648Z,0.60
2023-05-15T14:03:06.690Z,0.63
2023-05-15T14:05:35.977Z,0.50
2023-05-15T14:08:05.227Z,0.50
2023-05-15T14:10:37.468Z,0.75
2023-05-15T14:13:08.426Z,0.50
2023-05-15T14:15:37.598Z,0.68
2023-05-15T14:18:06.850Z,0.47
2023-05-15T14:20:35.859Z,0.63
2023-05-15T14:23:04.995Z,0.70
2023-05-15T14:25:35.608Z,0.60
2023-05-15T14:28:04.656Z,0.68
2023-05-15T14:30:33.763Z,0.63
2023-05-15T14:33:03.089Z,0.60
2023-05-15T14:35:32.220Z,0.57
2023-05-15T14:38:01.481Z,0.65
2023-05-15T14:40:30.678Z,0.70
2023-05-15T14:43:01.108Z,0.60
2023-05-15T14:45:30.485Z,0.60
2023-05-15T14:47:59.594Z,0.60
2023-05-15T14:50:28.943Z,0.60
2023-05-15T14:52:58.409Z,0.57
2023-05-15T14:55:27.662Z,0.80
2023-05-15T14:57:56.772Z,0.50
2023-05-15T15:00:27.925Z,0.80
2023-05-15T15:03:02.734Z,0.77
2023-05-15T15:05:31.966Z,4.20
2023-05-15T15:08:06.610Z,2.70
2023-05-15T15:10:38.177Z,0.63
2023-05-15T15:13:10.198Z,0.80
2023-05-15T15:15:41.646Z,0.80
2023-05-15T15:18:11.459Z,0.80
2023-05-15T15:20:42.707Z,0.70
2023-05-15T15:23:12.873Z,0.47
2023-05-15T15:25:42.036Z,0.52
2023-05-15T15:28:11.266Z,0.50
2023-05-15T15:30:41.845Z,0.85
2023-05-15T15:33:12.302Z,1.50
2023-05-15T15:35:41.624Z,1.10
2023-05-15T15:38:13.497Z,0.63
2023-05-15T15:40:42.922Z,0.85
2023-05-15T15:43:11.962Z,0.65
2023-05-15T15:45:42.713Z,0.70
2023-05-15T15:48:11.868Z,0.60
2023-05-15T15:50:40.955Z,0.60
2023-05-15T15:53:09.958Z,0.63
2023-05-15T15:55:39.208Z,0.60
2023-05-15T15:58:08.221Z,0.85
2023-05-15T16:00:38.810Z,0.80
2023-05-15T16:03:09.648Z,4.53
2023-05-15T16:05:38.943Z,0.73
2023-05-15T16:08:08.104Z,0.68
2023-05-15T16:10:37.336Z,0.70
2023-05-15T16:13:06.435Z,0.70
2023-05-15T16:15:35.620Z,0.80
2023-05-15T16:18:04.907Z,0.80
2023-05-15T16:20:35.479Z,0.90
2023-05-15T16:23:04.900Z,0.73
2023-05-15T16:25:33.957Z,0.80
2023-05-15T16:28:03.029Z,0.68
2023-05-15T16:30:47.296Z,0.80
2023-05-15T16:33:18.553Z,1.00
2023-05-15T16:35:49.497Z,0.60
2023-05-15T16:38:18.627Z,0.70
2023-05-15T16:40:48.036Z,0.68
2023-05-15T16:43:17.373Z,0.75
2023-05-15T16:45:47.554Z,0.90
2023-05-15T16:48:16.767Z,0.80
2023-05-15T16:50:45.963Z,0.68
2023-05-15T16:53:16.433Z,1.00
2023-05-15T16:55:45.836Z,0.90
2023-05-15T16:58:15.092Z,0.90
2023-05-15T17:00:44.864Z,0.75
2023-05-15T17:03:14.069Z,0.77
2023-05-15T17:05:52.272Z,0.70
2023-05-15T17:08:21.620Z,0.70
2023-05-15T17:10:51.154Z,1.55
2023-05-15T17:13:20.250Z,1.05
2023-05-15T17:15:49.986Z,1.30
2023-05-15T17:18:19.175Z,1.80
2023-05-15T17:20:48.266Z,1.30
2023-05-15T17:23:19.439Z,1.30
2023-05-15T17:25:49.611Z,1.13
2023-05-15T17:28:19.145Z,1.17
2023-05-15T17:30:48.508Z,0.90
2023-05-15T17:33:17.873Z,1.30
2023-05-15T17:35:47.355Z,0.70
2023-05-15T17:38:16.702Z,0.70
2023-05-15T17:40:47.294Z,1.23
2023-05-15T17:43:17.005Z,1.52
2023-05-15T17:45:46.732Z,1.13
2023-05-15T17:48:16.157Z,1.15
2023-05-15T17:50:45.369Z,1.77
2023-05-15T17:53:15.311Z,1.65
2023-05-15T17:55:44.497Z,2.20
2023-05-15T17:58:14.932Z,2.40
2023-05-15T18:00:44.766Z,1.98
2023-05-15T18:03:14.155Z,2.72
2023-05-15T18:05:43.489Z,1.40
2023-05-15T18:08:12.526Z,1.63
2023-05-15T18:10:41.647Z,2.08
2023-05-15T18:13:10.840Z,2.63
2023-05-15T18:15:41.503Z,2.70
2023-05-15T18:18:11.192Z,4.00
2023-05-15T18:20:40.816Z,4.30
2023-05-15T18:23:10.565Z,2.70
2023-05-15T18:25:39.633Z,2.80
2023-05-15T18:28:08.795Z,3.72
2023-05-15T18:30:37.865Z,4.53
2023-05-15T18:33:08.936Z,5.03
2023-05-15T18:35:38.274Z,4.53
2023-05-15T18:38:07.863Z,3.85
2023-05-15T18:40:37.013Z,3.90
2023-05-15T18:43:06.457Z,3.40
2023-05-15T18:45:35.731Z,3.92
2023-05-15T18:48:05.085Z,3.85
2023-05-15T18:50:36.959Z,3.72
2023-05-15T18:53:06.068Z,4.25
2023-05-15T18:55:35.784Z,4.28
2023-05-15T18:58:05.043Z,3.90
2023-05-15T19:00:43.566Z,3.40
2023-05-15T19:03:13.187Z,3.58
2023-05-15T19:05:43.920Z,3.45
2023-05-15T19:08:13.212Z,3.35
2023-05-15T19:10:42.546Z,4.07
2023-05-15T19:13:11.864Z,3.55
2023-05-15T19:15:41.000Z,3.50
2023-05-15T19:18:10.235Z,3.15
2023-05-15T19:20:39.449Z,3.25
2023-05-15T19:23:09.997Z,3.20
2023-05-15T19:25:39.052Z,2.97
2023-05-15T19:28:08.411Z,2.90
2023-05-15T19:30:37.690Z,2.97
2023-05-15T19:33:07.397Z,2.47
2023-05-15T19:35:37.646Z,2.90
2023-05-15T19:38:07.711Z,2.78
2023-05-15T19:40:38.492Z,2.85
2023-05-15T19:43:07.930Z,2.90
2023-05-15T19:45:37.157Z,2.58
2023-05-15T19:48:07.583Z,2.90
2023-05-15T19:51:03.320Z,3.03
2023-05-15T19:53:32.544Z,3.22
2023-05-15T19:56:03.799Z,3.28
2023-05-15T19:58:33.794Z,2.97
2023-05-15T20:01:04.577Z,2.75
2023-05-15T20:03:34.339Z,2.65
2023-05-15T20:06:04.834Z,3.00
2023-05-15T20:08:34.887Z,2.85
2023-05-15T20:11:06.793Z,2.40
2023-05-15T20:13:38.072Z,2.97
2023-05-15T20:16:10.694Z,2.70
2023-05-15T20:18:42.004Z,2.50
2023-05-15T20:21:11.319Z,3.00
2023-05-15T20:23:40.378Z,2.80
2023-05-15T20:26:10.986Z,3.40
2023-05-15T20:28:40.006Z,3.63
2023-05-15T20:31:09.659Z,2.70
2023-05-15T20:33:39.079Z,3.00
2023-05-15T20:36:09.800Z,3.50
2023-05-15T20:38:39.271Z,3.13
2023-05-15T20:41:08.421Z,2.92
2023-05-15T20:43:39.736Z,3.30
2023-05-15T20:46:11.355Z,2.60
2023-05-15T20:48:40.456Z,3.38
2023-05-15T20:51:09.610Z,3.30
2023-05-15T20:53:38.717Z,3.50
2023-05-15T20:56:07.805Z,2.70
2023-05-15T20:58:38.499Z,2.80
2023-05-15T21:01:07.769Z,3.75
2023-05-15T21:03:37.904Z,3.05
2023-05-15T21:06:07.268Z,3.38
2023-05-15T21:08:36.618Z,3.38
2023-05-15T21:11:05.681Z,3.55
2023-05-15T21:13:34.716Z,3.15
2023-05-15T21:16:05.643Z,2.85
2023-05-15T21:18:34.725Z,2.70
2023-05-15T21:21:07.219Z,3.22
2023-05-15T21:23:36.874Z,2.80
2023-05-15T21:26:06.094Z,3.28
2023-05-15T21:28:36.205Z,2.50
2023-05-15T21:31:10.393Z,2.60
2023-05-15T21:33:40.230Z,2.65
2023-05-15T21:36:09.716Z,2.80
2023-05-15T21:38:39.051Z,2.33
2023-05-15T21:41:08.348Z,2.35
2023-05-15T21:43:38.653Z,2.40
2023-05-15T21:46:07.721Z,2.40
2023-05-15T21:48:38.149Z,2.35
2023-05-15T21:51:07.310Z,2.22
2023-05-15T21:53:36.479Z,3.80
2023-05-15T21:56:05.981Z,3.45
2023-05-15T21:58:35.527Z,3.13
2023-05-15T22:01:04.965Z,3.35
2023-05-15T22:03:34.332Z,2.90
2023-05-15T22:06:05.085Z,2.70
2023-05-15T22:08:34.044Z,2.53
2023-05-15T22:11:03.616Z,3.83
2023-05-15T22:13:32.693Z,4.10
2023-05-15T22:16:01.978Z,4.63
2023-05-15T22:18:31.748Z,4.97
2023-05-15T22:21:01.935Z,5.68
2023-05-15T22:23:32.903Z,5.03
2023-05-15T22:26:02.269Z,4.70
2023-05-15T22:28:31.334Z,4.18
2023-05-15T22:31:01.031Z,5.50
2023-05-15T22:33:30.028Z,7.22
2023-05-15T22:35:59.190Z,5.15
2023-05-15T22:38:28.583Z,7.05
2023-05-15T22:40:59.060Z,7.35
2023-05-15T22:43:27.974Z,5.30
2023-05-15T22:45:56.962Z,4.85
2023-05-15T22:48:25.976Z,5.45
2023-05-15T22:50:55.135Z,6.00
2023-05-15T22:53:24.260Z,6.53
2023-05-15T22:55:53.258Z,7.00
2023-05-15T22:58:23.682Z,7.13
2023-05-15T23:00:52.766Z,7.35
2023-05-15T23:03:22.096Z,7.15
2023-05-15T23:05:53.459Z,7.25
2023-05-15T23:08:22.810Z,7.40
2023-05-15T23:10:53.400Z,4.90
2023-05-15T23:13:23.844Z,6.03
2023-05-15T23:15:52.854Z,7.43
2023-05-15T23:18:21.875Z,7.25
2023-05-15T23:20:50.805Z,6.70
2023-05-15T23:23:20.409Z,6.18
2023-05-15T23:25:49.373Z,7.03
2023-05-15T23:28:18.387Z,7.07
2023-05-15T23:30:48.869Z,6.35
2023-05-15T23:33:17.964Z,6.13
2023-05-15T23:35:47.019Z,6.38
2023-05-15T23:38:16.010Z,6.38
2023-05-15T23:40:45.011Z,6.88
2023-05-15T23:43:16.898Z,7.03
2023-05-15T23:45:46.078Z,6.70
2023-05-15T23:48:16.777Z,6.72
2023-05-15T23:50:46.045Z,4.78
2023-05-15T23:53:15.186Z,6.15
2023-05-15T23:55:44.253Z,7.18
2023-05-15T23:58:13.172Z,7.45
